createdAt,value
2022-12-22T00:00:26.180Z,35.83
2022-12-22T00:03:12.725Z,35.61
2022-12-22T00:06:04.013Z,35.63
2022-12-22T00:08:50.244Z,35.02
2022-12-22T00:11:42.395Z,35.12
2022-12-22T00:14:31.167Z,35.39
2022-12-22T00:17:20.813Z,35.80
2022-12-22T00:20:15.055Z,35.72
2022-12-22T00:23:09.761Z,35.68
2022-12-22T00:25:56.073Z,35.65
2022-12-22T00:28:45.131Z,35.51
2022-12-22T00:31:34.600Z,35.34
2022-12-22T00:34:25.684Z,35.51
2022-12-22T00:37:18.543Z,35.59
2022-12-22T00:40:04.611Z,35.32
2022-12-22T00:42:54.700Z,35.85
2022-12-22T00:45:41.393Z,35.52
2022-12-22T00:48:41.856Z,35.28
2022-12-22T00:51:35.240Z,35.39
2022-12-22T00:54:28.353Z,35.46
2022-12-22T00:57:19.503Z,35.55
2022-12-22T01:00:15.333Z,35.69
2022-12-22T01:03:01.510Z,35.57
2022-12-22T01:05:47.327Z,35.74
2022-12-22T01:08:33.359Z,35.68
2022-12-22T01:11:26.295Z,35.37
2022-12-22T01:14:12.318Z,35.26
2022-12-22T01:17:01.899Z,35.66
2022-12-22T01:19:47.953Z,35.95
2022-12-22T01:22:40.213Z,35.94
2022-12-22T01:25:33.330Z,35.67
2022-12-22T01:28:21.533Z,35.63
2022-12-22T01:31:10.440Z,35.85
2022-12-22T01:34:02.614Z,35.69
2022-12-22T01:36:49.173Z,35.88
2022-12-22T01:39:35.527Z,35.88
2022-12-22T01:42:21.733Z,35.48
2022-12-22T01:45:07.638Z,35.79
2022-12-22T01:47:56.674Z,35.60
2022-12-22T01:50:50.965Z,35.65
2022-12-22T01:53:42.550Z,35.32
2022-12-22T01:56:34.737Z,35.28
2022-12-22T01:59:25.406Z,35.37
2022-12-22T02:02:12.979Z,35.77
2022-12-22T02:05:05.859Z,35.49
2022-12-22T02:08:31.064Z,35.18
2022-12-22T02:11:37.159Z,34.92
2022-12-22T02:14:52.396Z,34.68
2022-12-22T02:17:57.541Z,34.75
2022-12-22T02:21:20.616Z,34.93
2022-12-22T02:24:25.817Z,34.49
2022-12-22T02:27:15.626Z,34.58
2022-12-22T02:30:17.591Z,34.16
2022-12-22T02:33:09.802Z,33.94
2022-12-22T02:36:10.988Z,33.88
2022-12-22T02:39:27.890Z,33.84
2022-12-22T02:43:15.942Z,33.92
2022-12-22T02:46:27.896Z,34.21
2022-12-22T02:49:33.287Z,33.58
2022-12-22T02:52:29.235Z,33.29
2022-12-22T02:55:15.749Z,33.22
2022-12-22T02:58:01.667Z,33.34
2022-12-22T03:00:51.386Z,33.33
2022-12-22T03:03:37.636Z,33.14
2022-12-22T03:06:30.262Z,33.64
2022-12-22T03:09:22.457Z,33.64
2022-12-22T03:12:09.217Z,33.33
2022-12-22T03:14:58.011Z,33.29
2022-12-22T03:17:49.311Z,33.32
2022-12-22T03:20:35.139Z,33.77
2022-12-22T03:23:27.294Z,33.63
2022-12-22T03:26:03.436Z,33.67
2022-12-22T03:28:37.002Z,34.03
2022-12-22T03:31:14.222Z,34.01
2022-12-22T03:33:46.855Z,34.32
2022-12-22T03:36:18.023Z,34.30
2022-12-22T03:38:51.095Z,34.71
2022-12-22T03:41:37.266Z,35.06
2022-12-22T03:44:25.408Z,35.14
2022-12-22T03:46:57.870Z,34.77
2022-12-22T03:49:26.292Z,35.28
2022-12-22T03:51:59.304Z,35.12
2022-12-22T03:54:27.277Z,35.07
2022-12-22T03:57:03.410Z,35.13
2022-12-22T03:59:33.804Z,35.48
2022-12-22T04:02:06.767Z,35.52
2022-12-22T04:04:35.748Z,35.25
2022-12-22T04:07:07.309Z,35.39
2022-12-22T04:10:03.437Z,35.58
2022-12-22T04:12:52.272Z,35.64
2022-12-22T04:15:25.268Z,35.50
2022-12-22T04:17:56.254Z,35.28
2022-12-22T04:20:29.093Z,35.73
2022-12-22T04:23:00.102Z,35.52
2022-12-22T04:25:30.456Z,35.21
2022-12-22T04:28:06.290Z,36.03
2022-12-22T04:30:36.378Z,35.87
2022-12-22T04:33:09.620Z,35.73
2022-12-22T04:35:42.452Z,35.72
2022-12-22T04:38:18.804Z,35.76
2022-12-22T04:40:51.538Z,35.63
2022-12-22T04:43:24.569Z,35.40
2022-12-22T04:45:56.598Z,35.51
2022-12-22T04:48:26.004Z,35.63
2022-12-22T04:51:01.995Z,35.71
2022-12-22T04:53:32.941Z,35.71
2022-12-22T04:56:09.946Z,35.62
2022-12-22T04:58:40.955Z,35.58
2022-12-22T05:01:16.371Z,35.82
2022-12-22T05:03:47.010Z,35.58
2022-12-22T05:06:15.193Z,35.72
2022-12-22T05:08:45.798Z,35.74
2022-12-22T05:11:18.986Z,35.61
2022-12-22T05:13:49.790Z,35.51
2022-12-22T05:16:24.831Z,35.58
2022-12-22T05:18:55.377Z,35.47
2022-12-22T05:21:28.995Z,35.95
2022-12-22T05:23:57.326Z,36.16
2022-12-22T05:26:27.900Z,35.56
2022-12-22T05:28:58.343Z,35.67
2022-12-22T05:31:29.272Z,35.99
2022-12-22T05:33:57.017Z,35.86
2022-12-22T05:36:27.490Z,35.62
2022-12-22T05:39:00.380Z,35.80
2022-12-22T05:41:34.334Z,35.65
2022-12-22T05:44:10.544Z,35.86
2022-12-22T05:46:43.226Z,35.97
2022-12-22T05:49:13.789Z,35.88
2022-12-22T05:51:47.452Z,35.79
2022-12-22T05:54:18.088Z,35.50
2022-12-22T05:56:46.041Z,35.57
2022-12-22T05:59:22.368Z,35.51
2022-12-22T06:01:50.568Z,35.65
2022-12-22T06:04:20.638Z,36.03
2022-12-22T06:06:51.838Z,35.74
2022-12-22T06:09:27.870Z,35.63
2022-12-22T06:11:55.522Z,35.83
2022-12-22T06:14:28.760Z,35.77
2022-12-22T06:16:59.456Z,35.60
2022-12-22T06:19:30.441Z,35.93
2022-12-22T06:22:03.430Z,35.82
2022-12-22T06:24:42.409Z,35.63
2022-12-22T06:27:12.489Z,36.14
2022-12-22T06:29:45.605Z,36.01
2022-12-22T06:32:26.542Z,35.56
2022-12-22T06:35:01.374Z,36.04
2022-12-22T06:37:45.855Z,35.51
2022-12-22T06:40:22.406Z,35.69
2022-12-22T06:43:10.624Z,35.74
2022-12-22T06:45:45.873Z,36.02
2022-12-22T06:48:24.312Z,35.92
2022-12-22T06:51:03.888Z,35.90
2022-12-22T06:53:37.166Z,36.11
2022-12-22T06:56:10.950Z,35.91
2022-12-22T06:58:45.542Z,35.82
2022-12-22T07:01:13.447Z,36.25
2022-12-22T07:03:45.009Z,36.07
2022-12-22T07:06:18.556Z,34.73
2022-12-22T07:08:47.381Z,33.56
2022-12-22T07:11:18.278Z,32.07
2022-12-22T07:13:48.857Z,30.88
2022-12-22T07:16:16.590Z,30.14
2022-12-22T07:18:47.271Z,29.71
2022-12-22T07:21:18.814Z,30.14
2022-12-22T07:23:46.446Z,30.78
2022-12-22T07:26:19.580Z,31.58
2022-12-22T07:28:48.718Z,32.61
2022-12-22T07:31:24.475Z,33.37
2022-12-22T07:33:57.841Z,33.83
2022-12-22T07:36:34.495Z,34.16
2022-12-22T07:39:13.866Z,34.42
2022-12-22T07:42:12.298Z,34.44
2022-12-22T07:44:45.363Z,34.73
2022-12-22T07:47:21.562Z,34.90
2022-12-22T07:50:14.863Z,34.99
2022-12-22T07:53:07.129Z,34.96
2022-12-22T07:55:37.687Z,35.01
2022-12-22T07:58:08.670Z,35.16
2022-12-22T08:00:40.234Z,35.28
2022-12-22T08:03:16.963Z,35.41
2022-12-22T08:05:58.613Z,35.52
2022-12-22T08:08:32.358Z,35.68
2022-12-22T08:11:10.505Z,35.67
2022-12-22T08:13:44.556Z,35.53
2022-12-22T08:16:22.389Z,35.78
2022-12-22T08:18:54.159Z,35.50
2022-12-22T08:21:27.200Z,35.76
2022-12-22T08:23:57.439Z,35.80
2022-12-22T08:26:44.246Z,35.82
2022-12-22T08:29:34.768Z,35.94
2022-12-22T08:32:13.773Z,36.18
2022-12-22T08:34:49.445Z,35.68
2022-12-22T08:37:27.577Z,35.99
2022-12-22T08:40:06.497Z,36.17
2022-12-22T08:42:38.513Z,36.31
2022-12-22T08:45:11.555Z,36.44
2022-12-22T08:47:44.804Z,36.13
2022-12-22T08:50:14.282Z,36.43
2022-12-22T08:52:45.181Z,36.37
2022-12-22T08:55:13.177Z,36.20
2022-12-22T08:57:52.281Z,36.66
2022-12-22T09:00:26.888Z,36.35
2022-12-22T09:02:55.855Z,36.27
2022-12-22T09:05:24.050Z,36.51
2022-12-22T09:08:01.110Z,36.50
2022-12-22T09:10:31.786Z,36.61
2022-12-22T09:12:59.831Z,36.26
2022-12-22T09:15:34.261Z,36.24
2022-12-22T09:18:02.324Z,36.20
2022-12-22T09:20:34.413Z,36.14
2022-12-22T09:23:08.764Z,36.15
2022-12-22T09:25:37.528Z,36.23
2022-12-22T09:28:12.234Z,36.35
2022-12-22T09:30:45.619Z,36.45
2022-12-22T09:33:25.088Z,36.15
2022-12-22T09:35:59.803Z,36.30
2022-12-22T09:38:38.383Z,36.10
2022-12-22T09:41:32.289Z,36.10
2022-12-22T09:44:23.941Z,36.38
2022-12-22T09:47:01.206Z,36.45
2022-12-22T09:49:34.803Z,36.01
2022-12-22T09:52:05.849Z,35.71
2022-12-22T09:54:39.736Z,35.64
2022-12-22T09:57:14.774Z,35.50
2022-12-22T09:59:47.900Z,35.57
2022-12-22T10:02:31.760Z,35.65
2022-12-22T10:05:42.380Z,35.72
2022-12-22T10:08:21.906Z,35.85
2022-12-22T10:10:57.203Z,35.82
2022-12-22T10:13:36.911Z,35.87
2022-12-22T10:16:29.235Z,35.75
2022-12-22T10:19:16.648Z,36.10
2022-12-22T10:21:49.182Z,35.97
2022-12-22T10:24:30.756Z,35.88
2022-12-22T10:27:05.024Z,36.04
2022-12-22T10:29:39.929Z,36.16
2022-12-22T10:32:25.850Z,36.26
2022-12-22T10:35:05.381Z,36.25
2022-12-22T10:37:43.562Z,36.29
2022-12-22T10:40:24.604Z,36.26
2022-12-22T10:43:00.154Z,36.22
2022-12-22T10:45:30.722Z,36.25
2022-12-22T10:48:10.920Z,36.12
2022-12-22T10:50:49.803Z,36.36
2022-12-22T10:53:23.944Z,36.46
2022-12-22T10:56:09.320Z,36.03
2022-12-22T10:59:24.286Z,35.55
2022-12-22T11:01:55.288Z,35.35
2022-12-22T11:04:28.297Z,35.42
2022-12-22T11:07:00.103Z,35.19
2022-12-22T11:09:35.034Z,35.12
2022-12-22T11:12:29.660Z,35.08
2022-12-22T11:15:24.648Z,35.06
2022-12-22T11:18:21.756Z,35.32
2022-12-22T11:21:23.969Z,35.14
2022-12-22T11:24:36.588Z,35.49
2022-12-22T11:27:28.824Z,35.27
2022-12-22T11:30:23.251Z,35.43
2022-12-22T11:33:23.119Z,35.23
2022-12-22T11:36:09.862Z,35.71
2022-12-22T11:38:49.721Z,35.66
2022-12-22T11:42:01.829Z,35.66
2022-12-22T11:45:29.349Z,35.65
2022-12-22T11:48:13.226Z,35.29
2022-12-22T11:51:01.385Z,35.26
2022-12-22T11:53:41.870Z,35.53
2022-12-22T11:56:21.238Z,35.15
2022-12-22T11:59:14.921Z,35.35
2022-12-22T12:02:13.265Z,35.32
2022-12-22T12:05:19.430Z,35.36
2022-12-22T12:08:08.956Z,35.19
2022-12-22T12:10:52.338Z,35.16
2022-12-22T12:13:37.525Z,35.22
2022-12-22T12:16:48.127Z,35.10
2022-12-22T12:19:49.683Z,35.18
2022-12-22T12:22:39.090Z,35.04
2022-12-22T12:25:25.637Z,35.17
2022-12-22T12:28:25.208Z,35.10
2022-12-22T12:30:57.291Z,35.20
2022-12-22T12:33:36.586Z,35.21
2022-12-22T12:36:25.055Z,35.14
2022-12-22T12:39:24.130Z,35.25
2022-12-22T12:42:13.057Z,35.02
2022-12-22T12:44:43.957Z,35.28
2022-12-22T12:47:49.279Z,35.17
2022-12-22T12:50:34.713Z,34.91
2022-12-22T12:53:11.603Z,35.09
2022-12-22T12:55:44.874Z,35.27
2022-12-22T12:58:32.698Z,35.27
2022-12-22T13:01:00.390Z,35.36
2022-12-22T13:06:51.527Z,35.06
2022-12-22T13:12:39.716Z,35.00
2022-12-22T13:15:30.237Z,35.02
2022-12-22T13:18:04.274Z,35.23
2022-12-22T13:20:37.588Z,35.17
2022-12-22T13:23:18.153Z,35.12
2022-12-22T13:26:00.432Z,35.00
2022-12-22T13:28:35.868Z,35.20
2022-12-22T13:31:29.071Z,35.27
2022-12-22T13:34:08.597Z,35.17
2022-12-22T13:36:40.056Z,35.05
2022-12-22T13:39:15.930Z,35.23
2022-12-22T13:41:51.749Z,35.12
2022-12-22T13:44:34.231Z,35.21
2022-12-22T13:47:06.197Z,35.27
2022-12-22T13:50:07.271Z,35.23
2022-12-22T13:52:37.080Z,35.23
2022-12-22T13:55:16.248Z,35.17
2022-12-22T13:57:54.786Z,35.23
2022-12-22T14:00:29.814Z,35.11
2022-12-22T14:03:08.852Z,35.13
2022-12-22T14:05:42.935Z,35.29
2022-12-22T14:08:16.630Z,35.29
2022-12-22T14:10:45.459Z,35.64
2022-12-22T14:13:28.476Z,35.42
2022-12-22T14:16:05.232Z,35.26
2022-12-22T14:18:38.491Z,35.06
2022-12-22T14:21:10.934Z,35.29
2022-12-22T14:23:48.992Z,35.36
2022-12-22T14:26:29.210Z,35.51
2022-12-22T14:29:03.047Z,35.34
2022-12-22T14:31:33.855Z,35.42
2022-12-22T14:34:24.148Z,35.21
2022-12-22T14:37:02.240Z,34.65
2022-12-22T14:39:34.830Z,33.48
2022-12-22T14:42:13.422Z,33.35
2022-12-22T14:44:51.138Z,32.99
2022-12-22T14:47:37.269Z,31.57
2022-12-22T14:50:30.487Z,30.11
2022-12-22T14:53:07.857Z,28.84
2022-12-22T14:55:51.501Z,28.76
2022-12-22T14:58:33.361Z,29.67
2022-12-22T15:01:19.733Z,29.73
2022-12-22T15:04:10.571Z,30.09
2022-12-22T15:06:45.915Z,30.66
2022-12-22T15:09:33.599Z,31.01
2022-12-22T15:12:19.464Z,31.18
2022-12-22T15:14:53.964Z,31.68
2022-12-22T15:17:29.148Z,31.72
2022-12-22T15:20:05.776Z,31.01
2022-12-22T15:22:33.829Z,31.88
2022-12-22T15:25:15.603Z,32.23
2022-12-22T15:27:46.678Z,31.95
2022-12-22T15:30:28.973Z,32.54
2022-12-22T15:33:12.985Z,33.27
2022-12-22T15:35:47.375Z,33.62
2022-12-22T15:38:26.651Z,33.26
2022-12-22T15:40:58.158Z,33.30
2022-12-22T15:43:56.463Z,32.76
2022-12-22T15:46:25.038Z,32.74
2022-12-22T15:49:01.806Z,32.40
2022-12-22T15:51:36.417Z,32.46
2022-12-22T15:54:13.722Z,32.74
2022-12-22T15:56:52.178Z,33.59
2022-12-22T15:59:28.328Z,33.39
2022-12-22T16:02:02.471Z,33.54
2022-12-22T16:04:30.483Z,33.59
2022-12-22T16:07:00.662Z,33.43
2022-12-22T16:09:40.754Z,33.84
2022-12-22T16:12:22.524Z,34.27
2022-12-22T16:14:55.797Z,34.78
2022-12-22T16:17:34.469Z,34.77
2022-12-22T16:20:09.356Z,34.80
2022-12-22T16:22:40.201Z,34.90
2022-12-22T16:25:16.194Z,35.14
2022-12-22T16:27:54.463Z,35.72
2022-12-22T16:30:33.601Z,35.53
2022-12-22T16:33:07.063Z,35.79
2022-12-22T16:35:43.629Z,35.89
2022-12-22T16:38:19.264Z,36.00
2022-12-22T16:40:50.582Z,35.93
2022-12-22T16:46:24.248Z,36.04
2022-12-22T16:49:00.033Z,36.20
2022-12-22T16:51:34.314Z,36.28
2022-12-22T16:54:07.653Z,36.00
2022-12-22T16:56:38.084Z,36.73
2022-12-22T16:59:08.673Z,36.07
2022-12-22T17:01:52.618Z,36.19
2022-12-22T17:04:32.750Z,36.32
2022-12-22T17:07:06.905Z,36.08
2022-12-22T17:09:52.923Z,36.43
2022-12-22T17:12:29.365Z,36.43
2022-12-22T17:14:59.413Z,36.56
2022-12-22T17:17:41.758Z,36.51
2022-12-22T17:20:22.193Z,36.50
2022-12-22T17:23:02.396Z,36.54
2022-12-22T17:25:31.321Z,36.41
2022-12-22T17:28:02.460Z,36.58
2022-12-22T17:30:37.445Z,36.88
2022-12-22T17:33:08.262Z,36.79
2022-12-22T17:35:37.373Z,36.82
2022-12-22T17:38:09.000Z,37.01
2022-12-22T17:40:40.171Z,37.13
2022-12-22T17:43:18.871Z,37.01
2022-12-22T17:45:50.948Z,37.13
2022-12-22T17:48:20.957Z,37.02
2022-12-22T17:50:51.881Z,37.03
2022-12-22T17:53:25.160Z,36.83
2022-12-22T17:56:09.330Z,37.10
2022-12-22T17:58:42.234Z,36.96
2022-12-22T18:01:23.672Z,37.02
2022-12-22T18:04:01.903Z,36.72
2022-12-22T18:06:35.583Z,36.95
2022-12-22T18:09:07.399Z,36.83
2022-12-22T18:11:45.590Z,36.96
2022-12-22T18:14:19.532Z,36.67
2022-12-22T18:16:50.415Z,36.88
2022-12-22T18:19:21.234Z,36.74
2022-12-22T18:21:49.059Z,36.68
2022-12-22T18:24:30.911Z,36.85
2022-12-22T18:26:59.446Z,36.78
2022-12-22T18:29:29.861Z,36.74
2022-12-22T18:32:00.301Z,36.59
2022-12-22T18:34:30.725Z,36.91
2022-12-22T18:36:58.353Z,36.79
2022-12-22T18:39:32.646Z,37.06
2022-12-22T18:42:03.561Z,36.78
2022-12-22T18:44:36.337Z,36.76
2022-12-22T18:47:11.653Z,36.82
2022-12-22T18:49:41.517Z,36.87
2022-12-22T18:52:23.621Z,36.90
2022-12-22T18:54:58.911Z,36.94
2022-12-22T18:57:32.746Z,36.92
2022-12-22T19:00:00.923Z,37.04
2022-12-22T19:02:34.800Z,36.68
2022-12-22T19:05:15.163Z,36.75
2022-12-22T19:07:51.936Z,36.84
2022-12-22T19:10:29.537Z,37.06
2022-12-22T19:13:04.679Z,36.71
2022-12-22T19:15:40.095Z,36.43
2022-12-22T19:18:22.819Z,36.69
2022-12-22T19:21:02.086Z,36.55
2022-12-22T19:23:34.378Z,36.81
2022-12-22T19:26:17.905Z,36.60
2022-12-22T19:28:51.844Z,36.40
2022-12-22T19:31:24.695Z,36.59
2022-12-22T19:34:00.135Z,36.67
2022-12-22T19:36:35.616Z,36.72
2022-12-22T19:39:08.632Z,36.52
2022-12-22T19:41:53.930Z,36.36
2022-12-22T19:44:33.279Z,36.71
2022-12-22T19:47:04.217Z,36.87
2022-12-22T19:49:34.224Z,36.61
2022-12-22T19:52:05.187Z,36.56
2022-12-22T19:54:35.030Z,36.53
2022-12-22T19:57:03.944Z,36.33
2022-12-22T19:59:40.152Z,36.59
2022-12-22T20:02:36.836Z,36.49
2022-12-22T20:05:22.748Z,36.36
2022-12-22T20:07:59.746Z,36.36
2022-12-22T20:10:35.571Z,36.46
2022-12-22T20:13:15.326Z,36.61
2022-12-22T20:15:45.901Z,36.49
2022-12-22T20:18:20.896Z,36.40
2022-12-22T20:21:06.634Z,36.48
2022-12-22T20:23:40.368Z,36.57
2022-12-22T20:26:12.133Z,36.37
2022-12-22T20:28:50.314Z,36.72
2022-12-22T20:31:19.875Z,36.56
2022-12-22T20:33:54.960Z,36.67
2022-12-22T20:36:28.812Z,36.58
2022-12-22T20:39:00.131Z,36.75
2022-12-22T20:41:30.523Z,36.55
2022-12-22T20:44:06.018Z,36.62
2022-12-22T20:46:42.432Z,36.32
2022-12-22T20:49:15.281Z,36.61
2022-12-22T20:51:43.152Z,36.57
2022-12-22T20:54:16.792Z,36.46
2022-12-22T20:56:47.194Z,36.72
2022-12-22T20:59:16.752Z,36.79
2022-12-22T21:01:46.333Z,36.61
2022-12-22T21:04:15.029Z,36.88
2022-12-22T21:06:52.347Z,36.48
2022-12-22T21:09:28.093Z,36.58
2022-12-22T21:11:58.156Z,36.73
2022-12-22T21:14:31.127Z,36.39
2022-12-22T21:17:01.414Z,36.44
2022-12-22T21:19:38.884Z,36.64
2022-12-22T21:22:14.477Z,36.23
2022-12-22T21:24:42.111Z,36.29
2022-12-22T21:27:20.076Z,36.64
2022-12-22T21:29:48.647Z,36.46
2022-12-22T21:32:21.877Z,36.55
2022-12-22T21:34:52.076Z,36.55
2022-12-22T21:37:20.065Z,36.21
2022-12-22T21:39:52.809Z,36.52
2022-12-22T21:42:23.568Z,36.62
2022-12-22T21:45:01.368Z,36.29
2022-12-22T21:47:34.077Z,36.34
2022-12-22T21:50:05.124Z,36.50
2022-12-22T21:52:35.652Z,36.55
2022-12-22T21:55:12.026Z,36.33
2022-12-22T21:57:39.455Z,36.45
2022-12-22T22:00:14.052Z,36.38
2022-12-22T22:02:44.094Z,36.63
2022-12-22T22:05:24.027Z,36.57
2022-12-22T22:07:56.128Z,36.35
2022-12-22T22:10:27.030Z,36.64
2022-12-22T22:12:59.920Z,36.59
2022-12-22T22:15:29.599Z,36.41
2022-12-22T22:18:06.467Z,36.59
2022-12-22T22:20:43.091Z,36.54
2022-12-22T22:23:15.003Z,36.38
2022-12-22T22:25:45.555Z,36.55
2022-12-22T22:28:13.339Z,36.62
2022-12-22T22:30:44.433Z,36.26
2022-12-22T22:33:20.205Z,36.30
2022-12-22T22:35:53.868Z,36.50
2022-12-22T22:38:24.869Z,36.62
2022-12-22T22:40:58.081Z,36.35
2022-12-22T22:43:25.644Z,36.78
2022-12-22T22:45:57.936Z,36.35
2022-12-22T22:48:25.728Z,36.48
2022-12-22T22:50:58.735Z,36.19
2022-12-22T22:53:31.581Z,36.45
2022-12-22T22:56:05.610Z,36.39
2022-12-22T22:58:38.802Z,36.25
2022-12-22T23:01:11.794Z,36.22
2022-12-22T23:03:47.171Z,36.42
2022-12-22T23:06:20.021Z,36.34
2022-12-22T23:08:51.360Z,36.14
2022-12-22T23:11:21.517Z,36.12
2022-12-22T23:13:54.177Z,35.55
2022-12-22T23:16:32.357Z,35.15
2022-12-22T23:19:10.223Z,35.07
2022-12-22T23:21:38.638Z,35.16
2022-12-22T23:24:15.572Z,34.77
2022-12-22T23:26:45.561Z,34.81
2022-12-22T23:29:24.623Z,34.72
2022-12-22T23:31:56.819Z,34.72
2022-12-22T23:34:28.923Z,34.65
2022-12-22T23:36:59.350Z,34.60
2022-12-22T23:39:32.223Z,34.31
2022-12-22T23:42:07.915Z,34.42
2022-12-22T23:44:40.820Z,34.67
2022-12-22T23:47:16.528Z,34.32
2022-12-22T23:49:47.795Z,34.41
2022-12-22T23:52:18.173Z,34.19
2022-12-22T23:54:45.840Z,34.26
2022-12-22T23:57:21.014Z,34.07
2022-12-22T23:59:50.706Z,34.28
